Airfield :
LOGIN :

Register | Disclaimer

   EN    FR    IT 

 










Legend :    VFR   Marginal VFR   IFR   Intensive IFR   Very Intensive IFR
Visi :
Ceiling :
>= 8 km
>= 3000ft
5 to 8 km
1000 to 3000 ft
1500m to 5 km
500 to 1000 ft
800 to 1500m
200 to 500 ft
< 800m
< 200 ft
Symbols :   Thunderstorms  Fog  Heavy snow  Heavy precipitations  Wind > 20 kt
SIGMETs :     Misc.  Thunderstorms  Icing  Turbulence  Mountain Waves  Volcanic Ashes






- Airport Elevation : 65 ft
- IATA code : PIK


EGPK - Glasgow Prestwick

CURRENT METAR :
  • 290950Z 17013KT 9999 FEW016 OVC028 12/09 Q1000

EXPIRED METARs :
  • 290920Z 15013KT 9999 FEW015 OVC028 11/09 Q1000
  • 290850Z 13011KT 9999 FEW015 OVC028 11/09 Q1000
  • 290820Z 15011KT 9999 FEW015 OVC028 11/09 Q1001
  • 290750Z 13009KT 9999 BKN014 OVC030 10/09 Q1002
  • 290720Z 13012KT 9999 BKN014 OVC040 10/09 Q1002

TAF TAF EGPK
Valid from the 29 at 06:00 until the 30 at 06:00 UTC


290456Z 2906/3006 16010KT 9999 SCT030
TEMPO 2906/2908 6000 -RADZ BKN012
PROB30
TEMPO 2906/2908 4000 -DZ BR BKN008
TEMPO 2908/2919 6000 RA BKN012
PROB30
TEMPO 2908/2919 4000 +RA BKN008
PROB40
TEMPO 2912/2921 16015G25KT
TEMPO 2919/2923 6000 RA SHRA BKN012
PROB30
TEMPO 2919/2922 4000 +RA +SHRA BKN008
BECMG 2921/2924 22007KT



MET'MAP, your aeronautical weather chart ! - Copyright ORBIFLY December 2007 - Disclaimer

ORBIFLY MET'MAP TEAM :

Programming & Development : Alexandra Zaïnal
Original concept : Baudouin d'Aumeries
Technical & hardware support : Manuel Goepfert
Assistance : Marc-Olivier Méhu




SOURCES & CREDITS :

   NOAA